Terminal Aerodrome Forecast
Issued by NWS Sioux Falls, SD

Home | Current Version | Previous Version | Text Only | Print | Product List | Glossary On
Versions: 1 2 3 4 5 6 7 8 9 10 11 12 13 14 15 16 17 18
254
FTUS43 KFSD 301130
TAFFSD
TAF
KFSD 301130Z 3012/0112 30014G20KT 4SM -SN OVC010
     FM302000 31015G23KT 6SM -SN OVC012
     FM010100 30012G16KT P6SM OVC012=

USA.gov is the U.S. government's official web portal to all federal, state and local government web resources and services.